Almeria, NE

1:13 AM CDT on May 23, 2015 (GMT -0500)
Sharp | | Change Station
CLOSE
Current Station
Airport
Location: Ord,
Elevation: 2070 ft
Nearby Weather Stations

Elev 2070 ft 41.62 °N, 98.95 °W | Updated 7 minutes ago

Overcast
Overcast
50 °F
Feels Like 50 °F
N
7
Wind Variable Wind from ESE

Today
High -- | Low -- °F
--% Chance of Precip.
Yesterday
High -- | Low -- °F
Precip. -- in
6:10 AM 8:58 PM
Waxing Crescent, 27% visible
Pressure 30.14 in
Visibility 3.0 miles
Clouds Mostly Cloudy 800 ft
Overcast 1400 ft
Dew Point 49 °F
Humidity 96%
Rainfall 0.00 in
Snow Depth Not available.
UV 0 out of 12
Pollen 7.40 out of 12
Air Quality Not available.
Flu Activity No Activity
SPECI KODX 230606Z AUTO 12006KT 3SM BR BKN008 OVC014 10/09 A3014 RMK AO2 T01000094

More Conditions Fewer Conditions

Pressure 30.14 in
Visibility 3.0 miles
Clouds Mostly Cloudy 800 ft
Overcast 1400 ft
Dew Point 49 °F
Humidity 96%
Rainfall 0.00 in
Snow Depth Not available.
UV 0 out of 12
Pollen 7.40 out of 12
Air Quality Not available.
Flu Activity No Activity
SPECI KODX 230606Z AUTO 12006KT 3SM BR BKN008 OVC014 10/09 A3014 RMK AO2 T01000094

More Conditions Fewer Conditions

10-Day Weather Forecast

Almanac

Astronomy

May. 23, 2015 Rise Set
Actual Time
Civil Twilight
Nautical Twilight
Astronomical Twilight
Moon
Length of Visible Light
Length of Day
Tomorrow will be .
, % of the Moon is Illuminated

Today's Extremes

State Highs State Lows

Community

WunderPhotos

Upload Photos

1,823,393 photos uploaded!

WunderBlogs® & News

Nearby

Air Quality

  Air Quality AQ Index Pollutant
Not available.

Snow Depth

Station Depth Elevation

Earthquake Activity

City Distance Mag. Time & Date
Minimum magnitude displayed is 2.5.

Coastal Water Temperatures

Place Temperature

Stations

Nearby Weather Stations

Station Location Temp. Windchill Dew Point Humidity Wind Precip. Elev Updated Type